• Join FlightAware (Why Join?)
  • Login
  • US Flag 
Rudolph Flight #1: Arrived! 
11:08AM EST


 

Airport Tracker/Info


-or-


 

Live Flight TrackerFlight Track Log ✈ SWA279 ✈ 17-Apr-2013 ✈ KMHT - KDEN

Flight Track Log - Related Links

Times and Time Zones

All times are in EDT time to prevent confusion due to time zone crossing. See the SWA279 flight status page for this flight to view local times or setup timezone preferences in your user account.

Time Position Orientation Groundspeed Altitude Reporting Facility
EDT Latitude Longitude Course Direction KTS MPH feet Rate Location/Type
06:52AM 42.9500 -71.4333 261° West 149 171 1,200  Level KA90
06:52AM 42.9667 -71.4500 324° Northwest 159 183 1,900 2,940 Climbing KA90
06:53AM 42.9922 -71.4664 335° Northwest 224 258 4,100 3,120 Climbing Boston Center
06:54AM 43.0364 -71.5111 323° Northwest 229 264 7,100 3,240 Climbing Boston Center
06:55AM 43.0642 -71.5903 296° West 218 251 10,600 3,120 Climbing Boston Center
06:56AM 43.0939 -71.6811 294° West 248 285 13,400 2,160 Climbing Boston Center
06:57AM 43.0800 -71.8006 261° West 293 337 15,400 2,220 Climbing Boston Center
06:58AM 42.8275 -72.2526 261° West  Level FlightAware Approximate
06:58AM 43.0661 -71.9372 262° West 333 383 18,400  Level Boston Center
06:59AM 43.0522 -72.0822 263° West 344 396 21,100 2,220 Climbing Boston Center
07:00AM 43.0419 -72.1900 263° West 355 409 22,900 1,860 Climbing Boston Center
07:01AM 43.0361 -72.3292 267° West 360 414 24,900 2,040 Climbing Boston Center
07:02AM 43.0214 -72.5053 264° West 381 438 27,100 1,860 Climbing Boston Center
07:03AM 43.0150 -72.6444 266° West 399 459 28,800 1,980 Climbing Boston Center
07:04AM 43.0125 -72.7950 269° West 405 466 31,100 2,160 Climbing Boston Center
07:05AM 43.0100 -72.9342 269° West 394 453 33,200 1,920 Climbing Boston Center
07:06AM 43.0133 -73.0847 272° West 374 430 35,000 1,620 Climbing Boston Center
07:07AM 43.0125 -73.2181 270° West 362 417 36,500 1,200 Climbing Boston Center
07:08AM 43.0075 -73.3544 267° West 362 417 37,400 720 Climbing Boston Center
07:09AM 43.0022 -73.4764 267° West 362 417 38,000 240 Climbing Boston Center
07:10AM 43.0008 -73.6153 269° West 368 423 38,000  Level Boston Center
07:11AM 42.9972 -73.7517 268° West 368 423 38,000  Level Boston Center
07:12AM 42.9933 -73.8906 268° West 368 423 38,000  Level Boston Center
07:13AM 42.9917 -74.0297 269° West 368 423 38,000  Level Boston Center
07:14AM 42.9897 -74.1631 269° West 362 417 38,000  Level Boston Center
07:15AM 42.9875 -74.2992 269° West 362 417 38,000  Level Boston Center
07:16AM 42.9853 -74.4325 269° West 362 417 38,000  Level Boston Center
07:17AM 42.9806 -74.5714 267° West 362 417 38,000  Level Boston Center
07:18AM 42.9781 -74.7047 269° West 362 417 38,000  Level Boston Center
07:19AM 42.9753 -74.8408 268° West 362 417 38,000  Level Boston Center
07:20AM 42.9722 -74.9797 268° West 362 417 38,000  Level Boston Center
07:21AM 42.9672 -75.1158 267° West 362 417 38,000  Level Boston Center
07:22AM 42.9617 -75.2547 267° West 362 417 38,000  Level Boston Center
07:23AM 42.9578 -75.4050 268° West 362 417 38,000  Level Boston Center
07:24AM 42.9522 -75.5436 267° West 362 417 38,000  Level Boston Center
07:25AM 42.9483 -75.6825 268° West 367 422 38,000  Level Boston Center
07:26AM 42.9422 -75.8183 267° West 367 422 38,000  Level Boston Center
07:29AM 42.9308 -76.1250 267° West 364 419 38,000  Level Cleveland Center
07:30AM 42.9258 -76.2672 267° West 369 425 38,000  Level Cleveland Center
07:31AM 42.9203 -76.4067 267° West 369 425 38,000  Level Cleveland Center
07:32AM 42.9128 -76.5461 266° West 369 425 38,000  Level Cleveland Center
07:33AM 42.9031 -76.6856 265° West 369 425 38,000  Level Cleveland Center
07:34AM 42.8678 -76.8181 250° West 369 425 38,000  Level Cleveland Center
07:35AM 42.8347 -76.9533 252° West 380 437 38,000  Level Cleveland Center
07:36AM 42.7992 -77.0856 250° West 380 437 38,000  Level Cleveland Center
07:37AM 42.7656 -77.2175 251° West 380 437 38,000  Level Cleveland Center
07:38AM 42.7317 -77.3494 251° West 374 430 38,000  Level Cleveland Center
07:40AM 42.6639 -77.6156 251° West 380 437 38,000  Level Cleveland Center
07:41AM 42.6297 -77.7497 251° West 380 437 38,000  Level Cleveland Center
07:42AM 42.5972 -77.8697 250° West 380 437 38,000  Level Cleveland Center
07:43AM 42.5625 -77.9981 250° West 380 437 38,000  Level Cleveland Center
07:44AM 42.5258 -78.1347 250° West 375 432 38,000  Level Cleveland Center
07:45AM 42.4911 -78.2658 250° West 375 432 38,000  Level Cleveland Center
07:46AM 42.4561 -78.3994 250° West 375 432 38,000  Level Cleveland Center
07:47AM 42.4211 -78.5300 250° West 375 432 38,000  Level Cleveland Center
07:48AM 42.3858 -78.6603 250° West 375 432 38,000  Level Cleveland Center
07:49AM 42.3483 -78.7908 249° West 375 432 38,000  Level Cleveland Center
07:50AM 42.3128 -78.9239 250° West 375 432 38,000  Level Cleveland Center
07:51AM 42.2769 -79.0511 249° West 375 432 38,000  Level Cleveland Center
07:52AM 42.2411 -79.1808 250° West 375 432 38,000  Level Cleveland Center
07:53AM 42.2053 -79.3106 250° West 375 432 38,000  Level Cleveland Center
07:54AM 42.1689 -79.4375 249° West 375 432 38,000  Level Cleveland Center
07:55AM 42.1286 -79.5781 249° West 375 432 38,000  Level Cleveland Center
07:56AM 42.0942 -79.7044 250° West 375 432 38,000  Level Cleveland Center
07:57AM 42.0575 -79.8281 248° West 375 432 38,000  Level Cleveland Center
07:58AM 42.0186 -79.9572 248° West 375 432 38,000  Level Cleveland Center
07:59AM 41.9839 -80.0831 250° West 370 426 38,000  Level Cleveland Center
08:00AM 41.9447 -80.2119 248° West 370 426 38,000 -300 Level Cleveland Center
08:01AM 41.9075 -80.3375 248° West 370 426 37,500 -780 Descending Cleveland Center
08:02AM 41.8722 -80.4606 249° West 364 419 36,500 -780 Descending Cleveland Center
08:03AM 41.8350 -80.5858 248° West 364 419 36,000 -300 Descending Cleveland Center
08:04AM 41.8014 -80.7056 249° West 359 413 36,000  Level Cleveland Center
08:05AM 41.7681 -80.8225 249° West 353 406 36,000  Level Cleveland Center
08:06AM 41.7300 -80.9447 247° West 353 406 36,000  Level Cleveland Center
08:07AM 41.6900 -81.0503 243° Southwest 353 406 36,000  Level Cleveland Center
08:08AM 41.6356 -81.1583 236° Southwest 353 406 36,000  Level Cleveland Center
08:09AM 41.5828 -81.2661 237° Southwest 360 414 36,000  Level Cleveland Center
08:10AM 41.5278 -81.3792 237° Southwest 365 420 36,000  Level Cleveland Center
08:11AM 41.4769 -81.4867 238° Southwest 365 420 36,000  Level Cleveland Center
08:12AM 41.4281 -81.5967 239° Southwest 360 414 36,000  Level Cleveland Center
08:13AM 41.3750 -81.7067 237° Southwest 360 414 36,000  Level Cleveland Center
08:14AM 41.3217 -81.8189 238° Southwest 360 414 36,000  Level Cleveland Center
08:15AM 41.2806 -81.9397 246° West 355 409 36,000  Level Cleveland Center
08:16AM 41.2581 -82.0747 258° West 363 418 36,000  Level Cleveland Center
08:17AM 41.2356 -82.2122 258° West 381 438 36,000  Level Cleveland Center
08:18AM 41.2147 -82.3442 258° West 381 438 36,000  Level Cleveland Center
08:19AM 41.1939 -82.4789 258° West 376 433 36,000  Level Cleveland Center
08:20AM 41.1725 -82.6244 259° West 371 427 36,000  Level Cleveland Center
08:21AM 41.1511 -82.7617 258° West 376 433 36,000  Level Cleveland Center
08:22AM 41.1297 -82.8989 258° West 376 433 36,000  Level Cleveland Center
08:23AM 41.1083 -83.0303 258° West 376 433 36,000  Level Cleveland Center
08:24AM 41.0864 -83.1672 258° West 376 433 36,000  Level Cleveland Center
08:25AM 41.0692 -83.2822 259° West 363 418 36,000  Level Cleveland Center
08:26AM 41.0492 -83.4164 259° West 373 429 36,000 300 Level Cleveland Center
08:27AM 41.0097 -83.6456 257° West 378 435 36,900 660 Climbing Chicago Center
08:28AM 40.9869 -83.7844 258° West 383 441 37,900 480 Climbing Chicago Center
08:29AM 40.9597 -83.9508 258° West 386 444 38,000  Climbing Indianapolis Center
08:30AM 40.9356 -84.0892 257° West 385 443 38,000  Level Indianapolis Center
08:31AM 40.9175 -84.1992 258° West 384 442 38,000  Level Chicago Center
08:32AM 40.8936 -84.3364 257° West 382 440 38,000  Level Chicago Center
08:33AM 40.8661 -84.5006 258° West 382 440 38,000  Level Chicago Center
08:34AM 40.8417 -84.6358 257° West 380 437 38,000  Level Chicago Center
08:35AM 40.8175 -84.7742 257° West 384 442 38,000  Level Chicago Center
08:36AM 40.7931 -84.9103 257° West 380 437 38,000  Level Chicago Center
08:37AM 40.7689 -85.0447 257° West 376 433 38,000  Level Chicago Center
08:38AM 40.7450 -85.1775 257° West 374 430 38,000  Level Chicago Center
08:40AM 40.7217 -85.3103 257° West 372 428 38,000  Level Chicago Center
08:41AM 40.6961 -85.4447 256° West 375 432 38,000  Level Chicago Center
08:42AM 40.6669 -85.6067 257° West 379 436 38,000  Level Chicago Center
08:43AM 40.6419 -85.7442 257° West 385 443 38,000  Level Chicago Center
08:44AM 40.6169 -85.8783 256° West 378 435 38,000  Level Chicago Center
08:45AM 40.5908 -86.0139 256° West 382 440 38,000  Level Chicago Center
08:46AM 40.5658 -86.1478 256° West 378 435 38,000  Level Chicago Center
08:47AM 40.5406 -86.2861 257° West 386 444 38,000  Level Chicago Center
08:48AM 40.5144 -86.4228 256° West 386 444 38,000  Level Chicago Center
08:49AM 40.4825 -86.5847 256° West 382 440 38,000  Level Chicago Center
08:50AM 40.4661 -86.7244 261° West 386 444 38,000  Level Chicago Center
08:51AM 40.4531 -86.8475 262° West 386 444 38,000  Level Chicago Center
08:52AM 40.4350 -87.0119 262° West 381 438 38,000  Level Chicago Center
08:53AM 40.4178 -87.1506 261° West 384 442 38,000  Level Chicago Center
08:54AM 40.4025 -87.2897 262° West 385 443 38,000  Level Chicago Center
08:55AM 40.3858 -87.4303 261° West 390 449 38,000  Level Chicago Center
08:56AM 40.3706 -87.5681 262° West 385 443 38,000  Level Chicago Center
08:57AM 40.3533 -87.7097 261° West 391 450 38,000  Level Chicago Center
08:58AM 40.3364 -87.8528 261° West 396 456 38,000  Level Chicago Center
08:59AM 40.3150 -88.0253 261° West 400 460 38,000  Level Chicago Center
09:00AM 40.2986 -88.1661 261° West 395 455 38,000  Level Chicago Center
09:01AM 40.2817 -88.3061 261° West 390 449 38,000  Level Chicago Center
09:02AM 40.2633 -88.4456 260° West 392 451 38,000  Level Chicago Center
09:03AM 40.2439 -88.5922 260° West 393 452 38,000  Level Chicago Center
09:04AM 40.2272 -88.7328 261° West 390 449 38,000  Level Chicago Center
09:05AM 40.2092 -88.8722 260° West 388 447 38,000  Level Chicago Center
09:06AM 40.1903 -89.0114 260° West 389 448 38,000  Level Chicago Center
09:07AM 40.1722 -89.1542 261° West 397 457 38,000  Level Chicago Center
09:08AM 40.1531 -89.2931 260° West 390 449 38,000  Level Chicago Center
09:09AM 40.1297 -89.4594 260° West 387 445 38,000  Level Chicago Center
09:10AM 40.1111 -89.5986 260° West 388 447 38,000  Level Chicago Center
09:11AM 40.0958 -89.7108 260° West 389 448 38,000  Level Kansas City Center
09:12AM 40.0758 -89.8478 259° West 384 442 38,000  Level Kansas City Center
09:13AM 40.0569 -89.9847 260° West 383 441 38,000  Level Kansas City Center
09:15AM 40.0339 -90.1500 260° West 386 444 38,000  Level Chicago Center
09:16AM 40.0139 -90.2861 259° West 383 441 38,000  Level Chicago Center
09:16AM 39.9994 -90.3986 261° West 385 443 38,000  Level Kansas City Center
09:17AM 39.9792 -90.5358 259° West 385 443 38,000  Level Kansas City Center
09:18AM 39.9583 -90.6753 259° West 389 448 38,000  Level Kansas City Center
09:19AM 39.9383 -90.8142 259° West 389 448 38,000  Level Kansas City Center
09:20AM 39.9136 -90.9783 259° West 390 449 38,000  Level Kansas City Center
09:21AM 39.8942 -91.1164 260° West 390 449 38,000  Level Kansas City Center
09:22AM 39.8706 -91.2539 257° West 391 450 38,000  Level Kansas City Center
09:24AM 39.8467 -91.3942 258° West 407 468 38,000 240 Level Kansas City Center
09:25AM 39.8308 -91.5261 261° West 387 445 38,500 540 Climbing Kansas City Center
09:26AM 39.8100 -91.6628 259° West 385 443 39,100 540 Climbing Kansas City Center
09:27AM 39.7878 -91.8047 259° West 395 455 39,700 420 Climbing Kansas City Center
09:28AM 39.7608 -91.9744 258° West 400 460 40,000 120 Climbing Kansas City Center
09:29AM 39.7381 -92.1150 258° West 398 458 40,000  Level Kansas City Center
09:30AM 39.7150 -92.2569 258° West 401 461 40,000  Level Kansas City Center
09:31AM 39.6917 -92.3983 258° West 401 461 40,000  Level Kansas City Center
09:32AM 39.6683 -92.5422 258° West 404 465 40,000 -240 Level Kansas City Center
09:33AM 39.6447 -92.6836 258° West 405 466 39,600 -840 Descending Kansas City Center
09:34AM 39.6222 -92.8194 258° West 396 456 38,300 -1,260 Descending Kansas City Center
09:35AM 39.6006 -92.9536 258° West 385 443 37,100 -1,200 Descending Kansas City Center
09:36AM 39.5703 -93.1211 257° West 395 455 36,000 -540 Descending Kansas City Center
09:37AM 39.5200 -93.2547 244° Southwest 413 475 36,000  Level Kansas City Center
09:38AM 39.4706 -93.3850 244° Southwest 409 471 36,000  Level Kansas City Center
09:39AM 39.4203 -93.5153 243° Southwest 406 467 36,000  Level Kansas City Center
09:40AM 39.3722 -93.6425 244° Southwest 398 458 36,000  Level Kansas City Center
09:41AM 39.3178 -93.7822 243° Southwest 399 459 36,000  Level Kansas City Center
09:42AM 39.2700 -93.9067 244° Southwest 403 464 36,000  Level Kansas City Center
09:43AM 39.2133 -94.0514 243° Southwest 404 465 36,000  Level Kansas City Center
09:44AM 39.1650 -94.1753 243° Southwest 404 465 36,000  Level Kansas City Center
09:45AM 39.1067 -94.3206 243° Southwest 408 470 36,000  Level Kansas City Center
09:46AM 39.0572 -94.4467 243° Southwest 411 473 36,000  Level Kansas City Center
09:47AM 38.9983 -94.5931 243° Southwest 411 473 36,000  Level Kansas City Center
09:48AM 38.9467 -94.7206 243° Southwest 416 479 36,000  Level Kansas City Center
09:49AM 38.8956 -94.8472 243° Southwest 417 480 36,000  Level Kansas City Center
09:50AM 38.8356 -94.9969 243° Southwest 420 483 36,000  Level Kansas City Center
09:51AM 38.7836 -95.1253 243° Southwest 421 484 36,000  Level Kansas City Center
09:52AM 38.7308 -95.2803 246° West 423 487 36,000  Level Kansas City Center
09:53AM 38.7339 -95.4281 272° West 431 496 36,000  Level Kansas City Center
09:54AM 38.7411 -95.5767 274° West 432 497 36,000  Level Kansas City Center
09:55AM 38.7483 -95.7503 273° West 435 501 36,000  Level Kansas City Center
09:56AM 38.7556 -95.9003 274° West 440 506 36,000  Level Kansas City Center
09:57AM 38.7628 -96.0761 273° West 440 506 36,000  Level Kansas City Center
09:58AM 38.7692 -96.2250 273° West 439 505 36,000  Level Kansas City Center
09:59AM 38.7750 -96.3736 273° West 435 501 36,000  Level Kansas City Center
10:01AM 38.7767 -96.5408 271° West 434 499 36,000  Level Kansas City Center
10:02AM 38.7836 -96.6953 273° West 435 501 36,000  Level Kansas City Center
10:03AM 38.7908 -96.8461 274° West 429 494 36,000  Level Kansas City Center
10:04AM 38.7953 -96.9958 272° West 422 486 36,000  Level Kansas City Center
10:05AM 38.8008 -97.1442 273° West 419 482 36,000  Level Kansas City Center
10:06AM 38.8058 -97.3219 272° West 417 480 36,000  Level Kansas City Center
10:07AM 38.8103 -97.4708 272° West 420 483 36,000  Level Kansas City Center
10:08AM 38.8156 -97.6272 273° West 422 486 36,000  Level Kansas City Center
10:09AM 38.8194 -97.7703 272° West 420 483 36,000  Level Kansas City Center
10:10AM 38.8228 -97.9194 272° West 424 488 36,000  Level Kansas City Center
10:11AM 38.8253 -98.0681 271° West 420 483 36,000  Level Kansas City Center
10:12AM 38.8297 -98.2444 272° West 415 478 36,000  Level Kansas City Center
10:13AM 38.8328 -98.3908 272° West 413 475 36,000  Level Kansas City Center
10:14AM 38.8358 -98.5347 272° West 408 470 36,000  Level Kansas City Center
10:15AM 38.8394 -98.6764 272° West 400 460 36,000  Level Kansas City Center
10:16AM 38.8408 -98.8189 271° West 400 460 36,000  Level Kansas City Center
10:17AM 38.8439 -98.9603 272° West 398 458 36,000  Level Kansas City Center
10:18AM 38.8467 -99.1011 271° West 397 457 36,000  Level Kansas City Center
10:19AM 38.8472 -99.2758 270° West 400 460 36,000  Level Kansas City Center
10:20AM 38.8492 -99.4139 271° West 400 460 36,000  Level Kansas City Center
10:21AM 38.8503 -99.5469 271° West 399 459 36,000  Level Denver Center
10:22AM 38.8517 -99.7056 271° West 400 460 36,000  Level Denver Center
10:23AM 38.8528 -99.8422 271° West 400 460 36,000  Level Denver Center
10:24AM 38.8536 -99.9781 270° West 400 460 36,000  Level Denver Center
10:25AM 38.8544 -100.1375 270° West 402 463 36,000  Level Denver Center
10:26AM 38.8547 -100.2731 270° West 399 459 36,000  Level Denver Center
10:27AM 38.8550 -100.4314 270° West 400 460 36,000  Level Denver Center
10:28AM 38.8553 -100.5664 270° West 397 457 36,000 -300 Level Denver Center
10:29AM 38.8558 -100.7036 270° West 400 460 35,500 -840 Descending Denver Center
10:30AM 38.8550 -100.8633 270° West 401 461 34,400 -780 Descending Denver Center
10:31AM 38.8550 -101.0006 270° West 402 463 34,000 -240 Descending Denver Center
10:32AM 38.8536 -101.1567 269° West 395 455 34,000  Level Denver Center
10:33AM 38.8528 -101.2903 270° West 393 452 34,000  Level Denver Center
10:34AM 38.8528 -101.4253 270° West 396 456 34,000  Level Denver Center
10:35AM 38.8511 -101.5811 269° West 395 455 34,000  Level Denver Center
10:36AM 38.8497 -101.7139 269° West 393 452 34,000  Level Denver Center
10:37AM 38.8481 -101.8694 269° West 392 451 34,000  Level Denver Center
10:38AM 38.8469 -102.0031 269° West 393 452 34,000 -60 Level Denver Center
10:39AM 38.8439 -102.1581 269° West 389 448 33,900 -540 Descending Denver Center
10:40AM 38.8414 -102.2911 269° West 393 452 33,000 -480 Descending Denver Center
10:41AM 38.8414 -102.4428 270° West 384 442 33,000  Level Denver Center
10:42AM 38.8703 -102.5717 286° West 394 453 33,000  Level Denver Center
10:44AM 38.8978 -102.6925 286° West 371 427 33,000  Level Denver Center
10:45AM 38.9269 -102.8275 286° West 353 406 33,000 -360 Level Denver Center
10:46AM 38.9531 -102.9464 286° West 343 395 32,300 -900 Descending Denver Center
10:47AM 38.9789 -103.0586 287° West 327 376 31,200 -1,200 Descending Denver Center
10:48AM 39.0733 -103.1150 335° Northwest 394 453 29,900 -1,200 Descending Denver Center
10:49AM 39.1622 -103.0211 39° Northeast 430 495 28,800 -1,080 Descending Denver Center
10:50AM 39.1383 -102.8989 104° East 348 400 27,700 -1,020 Descending Denver Center
10:51AM 39.0889 -102.8011 123° Southeast 325 374 26,700 -1,080 Descending Denver Center
10:52AM 39.0344 -102.6956 124° Southeast 313 360 25,600 -1,080 Descending Denver Center
10:53AM 38.9675 -102.6658 161° South 263 303 24,600 -1,020 Descending Denver Center
10:54AM 38.9014 -102.7056 205° Southwest 238 274 23,500 -1,020 Descending Denver Center
10:55AM 38.8453 -102.7431 208° Southwest 237 273 22,600 -780 Descending Denver Center
10:56AM 38.7864 -102.7856 209° Southwest 230 265 22,000 -480 Descending Denver Center
10:57AM 38.7406 -102.8208 211° Southwest 230 265 21,700 -480 Descending Denver Center
10:58AM 38.7664 -102.9322 287° West 317 365 21,100 -360 Descending Denver Center
10:59AM 38.8286 -103.0286 310° West 348 400 21,000 -60 Descending Denver Center
11:00AM 38.8911 -103.1261 309° West 350 403 21,000  Level Denver Center
11:01AM 38.9525 -103.2258 308° West 352 405 21,000  Level Denver Center
11:02AM 39.0256 -103.3422 309° West 355 409 21,000  Level Denver Center
11:03AM 39.0892 -103.4433 309° West 360 414 21,000  Level Denver Center
11:04AM 39.1519 -103.5433 309° West 356 410 21,000  Level Denver Center
11:05AM 39.2144 -103.6419 309° West 352 405 21,000 -180 Level Denver Center
11:06AM 39.2747 -103.7419 308° West 351 404 20,700 -900 Descending Denver Center
11:07AM 39.3331 -103.8369 308° West 340 391 19,200 -1,560 Descending Denver Center
11:08AM 39.3678 -103.9392 294° West 314 361 17,200 -2,100 Descending Denver Center
11:09AM 39.3844 -104.0836 279° West 305 351 14,500 -1,920 Descending Denver Center
11:10AM 39.3933 -104.1897 276° West 307 353 13,200 -780 Descending Denver Center
11:12AM 39.4044 -104.2928 278° West 269 310 13,000 -960 Descending Denver Center
11:13AM 39.4253 -104.3889 286° West 276 318 11,300 -1,020 Descending Denver Center
11:14AM 39.4419 -104.4942 282° West 275 316 11,000 -300 Descending Denver Center
11:15AM 39.4561 -104.5869 281° West 268 308 10,800 -540 Descending Denver Center
11:16AM 39.4953 -104.6483 310° West 247 284 10,000 -420 Descending Denver Center
11:17AM 39.5647 -104.6639 350° North 234 269 10,000 -300 Level Denver Center
11:18AM 39.6283 -104.6633 360° North 230 265 9,500 -780 Descending Denver Center
11:19AM 39.6881 -104.6628 360° North 202 232 8,400 -1,020 Descending Denver Center
11:20AM 39.7356 -104.6622 North 178 205 7,400 -960 Descending Denver Center
11:21AM 39.7778 -104.6614 North 145 167 6,500 -840 Descending Denver Center
11:22AM 39.8172 -104.6614 360° North 143 165 5,700 -780 Descending Denver Center
11:24AM 39.8500 -104.6667 North  Level FlightAware Approximate
11:31AM 39.8617 -104.6732 North  Level Estimated
11:32AM 39.8617 -104.6732 North  Level Estimated
11:33AM 39.8617 -104.6732 North  Level Estimated